Time;durP1;ratioP1;P1;durP2;ratioP2;P2;SDS_P1;SDS_P2;PMS_P1;PMS_P2;Temp;Humidity;BMP_temperature;BMP_pressure;BME280_temperature;BME280_humidity;BME280_pressure;Samples;Min_cycle;Max_cycle;Signal;HPM_P1;HPM_P2
2023/04/07 00:00:06;;;;;;;;;;;;;;;;;;4965719;28;89463;-62
2023/04/07 00:02:31;;;;;;;;;;;;;;;;;;4962791;28;89388;-64
2023/04/07 00:04:57;;;;;;;;;;;;;;;;;;4957656;28;90588;-62
2023/04/07 00:07:22;;;;;;;;;;;;;;;;;;4961807;28;89274;-68
2023/04/07 00:09:47;;;;;;;;;;;;;;;;;;4973106;28;89864;-60
2023/04/07 00:12:13;;;;;;;;;;;;;;;;;;4957699;28;89277;-66
2023/04/07 00:14:38;;;;;;;;;;;;;;;;;;4961376;28;88988;-60
2023/04/07 00:17:03;;;;;;;;;;;;;;;;;;4966769;28;89854;-63
2023/04/07 00:19:28;;;;;;;;;;;;;;;;;;4963203;28;90107;-63
2023/04/07 00:21:54;;;;;;;;;;;;;;;;;;4958008;28;90871;-65
2023/04/07 00:24:19;;;;;;;;;;;;;;;;;;4963999;28;90271;-62
2023/04/07 00:26:45;;;;;;;;;;;;;;;;;;4963704;28;89503;-63
2023/04/07 00:29:10;;;;;;;;;;;;;;;;;;4960843;28;89582;-59
2023/04/07 00:31:35;;;;;;;;;;;;;;;;;;4957073;28;89826;-61
2023/04/07 00:34:00;;;;;;;;;;;;;;;;;;4965384;28;89089;-63
2023/04/07 00:36:26;;;;;;;;;;;;;;;;;;4961668;28;90156;-66
2023/04/07 00:38:51;;;;;;;;;;;;;;;;;;4976589;28;91803;-62
2023/04/07 00:41:16;;;;;;;;;;;;;;;;;;4963652;28;89551;-62
2023/04/07 00:43:41;;;;;;;;;;;;;;;;;;4964413;28;89687;-64
2023/04/07 00:46:07;;;;;;;;;;;;;;;;;;4958579;28;89330;-63
2023/04/07 00:48:32;;;;;;;;;;;;;;;;;;4955535;28;89463;-60
2023/04/07 00:50:57;;;;;;;;;;;;;;;;;;4965269;28;89753;-59
2023/04/07 00:53:22;;;;;;;;;;;;;;;;;;4962295;28;89234;-62
2023/04/07 00:55:48;;;;;;;;;;;;;;;;;;4960530;28;90089;-62
2023/04/07 00:58:13;;;;;;;;;;;;;;;;;;4965547;28;90183;-62
2023/04/07 01:00:45;;;;;;;;;;;;;;;;;;4961421;28;89065;-62
2023/04/07 01:03:17;;;;;;;;;;;;;;;;;;4959087;28;90586;-60
2023/04/07 01:05:54;;;;;;;;;;;;;;;;;;4977157;28;91934;-59
2023/04/07 01:08:20;;;;;;;;;;;;;;;;;;4954466;28;89057;-59
2023/04/07 01:10:50;;;;;;;;;;;;;;;;;;4957579;28;90086;-62
2023/04/07 01:13:26;;;;;;;;;;;;;;;;;;4970509;28;89440;-61
2023/04/07 01:15:55;;;;;;;;;;;;;;;;;;4957054;28;89750;-65
2023/04/07 01:18:23;;;;;;;;;;;;;;;;;;4959159;28;90269;-61
2023/04/07 01:20:50;;;;;;;;;;;;;;;;;;4958299;28;89152;-61
2023/04/07 01:23:34;;;;;;;;;;;;;;;;;;4954030;28;89765;-59
2023/04/07 01:26:06;;;;;;;;;;;;;;;;;;4959331;28;89173;-59
2023/04/07 01:28:43;;;;;;;;;;;;;;;;;;4964445;28;89452;-59
2023/04/07 01:31:11;;;;;;;;;;;;;;;;;;4960881;28;89701;-65
2023/04/07 01:33:37;;;;;;;;;;;;;;;;;;4959593;28;89359;-67
2023/04/07 01:36:03;;;;;;;;;;;;;;;;;;4961355;28;89777;-67
2023/04/07 01:38:29;;;;;;;;;;;;;;;;;;4955060;28;91210;-61
2023/04/07 01:40:55;;;;;;;;;;;;;;;;;;4956390;28;89449;-67
2023/04/07 01:43:22;;;;;;;;;;;;;;;;;;4961450;28;89841;-68
2023/04/07 01:45:48;;;;;;;;;;;;;;;;;;4957427;28;89452;-65
2023/04/07 01:48:14;;;;;;;;;;;;;;;;;;4957826;28;90560;-68
2023/04/07 01:50:40;;;;;;;;;;;;;;;;;;4960936;28;89722;-68
2023/04/07 01:53:06;;;;;;;;;;;;;;;;;;4955191;28;90922;-68
2023/04/07 01:55:31;;;;;;;;;;;;;;;;;;4958794;28;89045;-65
2023/04/07 01:57:57;;;;;;;;;;;;;;;;;;4954541;28;89994;-62
2023/04/07 02:00:22;;;;;;;;;;;;;;;;;;4958482;28;89373;-69
2023/04/07 02:02:50;;;;;;;;;;;;;;;;;;4958073;28;89605;-65
2023/04/07 02:05:18;;;;;;;;;;;;;;;;;;4952325;28;89797;-67
2023/04/07 02:08:01;;;;;;;;;;;;;;;;;;4951400;28;89089;-68
2023/04/07 02:10:28;;;;;;;;;;;;;;;;;;4961914;28;89871;-63
2023/04/07 02:12:54;;;;;;;;;;;;;;;;;;4955270;28;91827;-63
2023/04/07 02:15:20;;;;;;;;;;;;;;;;;;4960871;28;89041;-65
2023/04/07 02:17:47;;;;;;;;;;;;;;;;;;4958592;28;90142;-66
2023/04/07 02:20:14;;;;;;;;;;;;;;;;;;4956105;28;90636;-68
2023/04/07 02:22:40;;;;;;;;;;;;;;;;;;4958959;28;89723;-62
2023/04/07 02:25:23;;;;;;;;;;;;;;;;;;4956219;28;89709;-65
2023/04/07 02:27:48;;;;;;;;;;;;;;;;;;4955982;28;89876;-63
2023/04/07 02:30:14;;;;;;;;;;;;;;;;;;4956587;28;89722;-65
2023/04/07 02:32:40;;;;;;;;;;;;;;;;;;4955363;28;90198;-65
2023/04/07 02:35:05;;;;;;;;;;;;;;;;;;4952658;28;89766;-67
2023/04/07 02:37:30;;;;;;;;;;;;;;;;;;4956496;28;89612;-62
2023/04/07 02:39:55;;;;;;;;;;;;;;;;;;4961152;28;90647;-68
2023/04/07 02:42:21;;;;;;;;;;;;;;;;;;4956600;28;89817;-63
2023/04/07 02:44:46;;;;;;;;;;;;;;;;;;4960503;28;90145;-63
2023/04/07 02:47:11;;;;;;;;;;;;;;;;;;4956230;28;90068;-65
2023/04/07 02:49:36;;;;;;;;;;;;;;;;;;4957314;28;89687;-67
2023/04/07 02:52:01;;;;;;;;;;;;;;;;;;4959155;28;89659;-66
2023/04/07 02:54:27;;;;;;;;;;;;;;;;;;4956052;28;89617;-68
2023/04/07 02:56:52;;;;;;;;;;;;;;;;;;4959187;28;89680;-65
2023/04/07 02:59:17;;;;;;;;;;;;;;;;;;4956558;28;89214;-67
2023/04/07 03:01:42;;;;;;;;;;;;;;;;;;4958093;28;90076;-63
2023/04/07 03:04:07;;;;;;;;;;;;;;;;;;4952791;28;89650;-63
2023/04/07 03:06:32;;;;;;;;;;;;;;;;;;4956581;28;90427;-61
2023/04/07 03:08:58;;;;;;;;;;;;;;;;;;4955406;28;89699;-64
2023/04/07 03:11:23;;;;;;;;;;;;;;;;;;4954691;28;89471;-60
2023/04/07 03:13:48;;;;;;;;;;;;;;;;;;4958350;28;89162;-61
2023/04/07 03:16:14;;;;;;;;;;;;;;;;;;4950846;28;90521;-62
2023/04/07 03:18:39;;;;;;;;;;;;;;;;;;4954489;28;90526;-61
2023/04/07 03:21:04;;;;;;;;;;;;;;;;;;4958594;28;90651;-61
2023/04/07 03:23:30;;;;;;;;;;;;;;;;;;4960549;28;89748;-60
2023/04/07 03:25:56;;;;;;;;;;;;;;;;;;4956586;28;89015;-66
2023/04/07 03:28:21;;;;;;;;;;;;;;;;;;4958606;28;90889;-63
2023/04/07 03:30:47;;;;;;;;;;;;;;;;;;4956613;28;90534;-63
2023/04/07 03:33:12;;;;;;;;;;;;;;;;;;4952377;28;89445;-61
2023/04/07 03:35:37;;;;;;;;;;;;;;;;;;4961287;28;89740;-63
2023/04/07 03:38:02;;;;;;;;;;;;;;;;;;4956049;28;89368;-59
2023/04/07 03:40:28;;;;;;;;;;;;;;;;;;4957180;28;89550;-62
2023/04/07 03:42:53;;;;;;;;;;;;;;;;;;4955552;28;90269;-58
2023/04/07 03:45:18;;;;;;;;;;;;;;;;;;4962687;28;90058;-59
2023/04/07 03:47:43;;;;;;;;;;;;;;;;;;4967397;28;90708;-59
2023/04/07 03:50:09;;;;;;;;;;;;;;;;;;4959031;28;89600;-64
2023/04/07 03:52:34;;;;;;;;;;;;;;;;;;4955021;28;89571;-63
2023/04/07 03:54:59;;;;;;;;;;;;;;;;;;4958232;28;90220;-67
2023/04/07 03:57:25;;;;;;;;;;;;;;;;;;4958590;28;90276;-61
2023/04/07 03:59:50;;;;;;;;;;;;;;;;;;4958191;28;89015;-63
2023/04/07 04:02:16;;;;;;;;;;;;;;;;;;4958365;28;90176;-67
2023/04/07 04:04:41;;;;;;;;;;;;;;;;;;4958238;28;89772;-65
2023/04/07 04:07:06;;;;;;;;;;;;;;;;;;4962908;28;91710;-64
2023/04/07 04:09:31;;;;;;;;;;;;;;;;;;4955602;28;89791;-65
2023/04/07 04:11:56;;;;;;;;;;;;;;;;;;4954765;28;89080;-65
2023/04/07 04:14:22;;;;;;;;;;;;;;;;;;4956280;28;89766;-65
2023/04/07 04:16:47;;;;;;;;;;;;;;;;;;4961552;28;89298;-66
2023/04/07 04:19:12;;;;;;;;;;;;;;;;;;4961973;28;89299;-63
2023/04/07 04:21:37;;;;;;;;;;;;;;;;;;4956776;28;89587;-65
2023/04/07 04:24:03;;;;;;;;;;;;;;;;;;4959214;28;89594;-60
2023/04/07 04:26:28;;;;;;;;;;;;;;;;;;4952523;28;89812;-65
2023/04/07 04:28:53;;;;;;;;;;;;;;;;;;4958573;28;90668;-67
2023/04/07 04:31:19;;;;;;;;;;;;;;;;;;4955135;28;90781;-65
2023/04/07 04:33:45;;;;;;;;;;;;;;;;;;4956249;28;90540;-67
2023/04/07 04:36:10;;;;;;;;;;;;;;;;;;4956428;28;89440;-63
2023/04/07 04:38:35;;;;;;;;;;;;;;;;;;4960359;28;89356;-62
2023/04/07 04:41:01;;;;;;;;;;;;;;;;;;4958685;28;91175;-63
2023/04/07 04:43:26;;;;;;;;;;;;;;;;;;4956284;28;90399;-65
2023/04/07 04:45:51;;;;;;;;;;;;;;;;;;4957338;28;89846;-61
2023/04/07 04:48:16;;;;;;;;;;;;;;;;;;4959931;28;92552;-65
2023/04/07 04:50:42;;;;;;;;;;;;;;;;;;4962862;28;89581;-63
2023/04/07 04:53:07;;;;;;;;;;;;;;;;;;4957568;28;89993;-62
2023/04/07 04:55:33;;;;;;;;;;;;;;;;;;4959703;28;89904;-68
2023/04/07 04:57:58;;;;;;;;;;;;;;;;;;4952138;28;89703;-60
2023/04/07 05:00:23;;;;;;;;;;;;;;;;;;4955531;28;89511;-66
2023/04/07 05:02:48;;;;;;;;;;;;;;;;;;4957100;28;89816;-67
2023/04/07 05:05:13;;;;;;;;;;;;;;;;;;4957817;28;89792;-68
2023/04/07 05:07:39;;;;;;;;;;;;;;;;;;4957710;28;89382;-66
2023/04/07 05:10:05;;;;;;;;;;;;;;;;;;4952984;28;90539;-66
2023/04/07 05:12:30;;;;;;;;;;;;;;;;;;4964965;28;89061;-67
2023/04/07 05:14:56;;;;;;;;;;;;;;;;;;4957229;28;90346;-60
2023/04/07 05:17:21;;;;;;;;;;;;;;;;;;4958885;28;89088;-60
2023/04/07 05:19:46;;;;;;;;;;;;;;;;;;4955800;28;89693;-64
2023/04/07 05:22:11;;;;;;;;;;;;;;;;;;4956601;28;89835;-62
2023/04/07 05:24:36;;;;;;;;;;;;;;;;;;4956309;28;89044;-64
2023/04/07 05:27:02;;;;;;;;;;;;;;;;;;4959875;28;90022;-59
2023/04/07 05:29:27;;;;;;;;;;;;;;;;;;4952048;28;91769;-62
2023/04/07 05:31:52;;;;;;;;;;;;;;;;;;4955701;28;89641;-59
2023/04/07 05:34:18;;;;;;;;;;;;;;;;;;4959440;28;89589;-63
2023/04/07 05:36:43;;;;;;;;;;;;;;;;;;4957425;28;89558;-63
2023/04/07 05:39:08;;;;;;;;;;;;;;;;;;4961994;28;89766;-63
2023/04/07 05:41:33;;;;;;;;;;;;;;;;;;4954820;28;89598;-59
2023/04/07 05:43:59;;;;;;;;;;;;;;;;;;4953029;28;89570;-60
2023/04/07 05:46:24;;;;;;;;;;;;;;;;;;4953926;28;89749;-59
2023/04/07 05:48:49;;;;;;;;;;;;;;;;;;4955207;28;89175;-59
2023/04/07 05:51:15;;;;;;;;;;;;;;;;;;4957340;28;89516;-59
2023/04/07 05:53:40;;;;;;;;;;;;;;;;;;4958785;28;89646;-58
2023/04/07 05:56:06;;;;;;;;;;;;;;;;;;4958607;28;89648;-60
2023/04/07 05:58:31;;;;;;;;;;;;;;;;;;4957178;28;90742;-59
2023/04/07 06:00:56;;;;;;;;;;;;;;;;;;4955256;28;89622;-60
2023/04/07 06:03:21;;;;;;;;;;;;;;;;;;4958968;28;89485;-60
2023/04/07 06:05:47;;;;;;;;;;;;;;;;;;4949640;28;89494;-60
2023/04/07 06:08:12;;;;;;;;;;;;;;;;;;4956392;28;89383;-58
2023/04/07 06:10:38;;;;;;;;;;;;;;;;;;4954220;28;89269;-61
2023/04/07 06:13:04;;;;;;;;;;;;;;;;;;4958268;28;90723;-58
2023/04/07 06:15:29;;;;;;;;;;;;;;;;;;4961724;28;89984;-60
2023/04/07 06:17:54;;;;;;;;;;;;;;;;;;4956634;28;92371;-62
2023/04/07 06:20:21;;;;;;;;;;;;;;;;;;4954491;28;91157;-63
2023/04/07 06:22:46;;;;;;;;;;;;;;;;;;4952269;28;89142;-63
2023/04/07 06:25:12;;;;;;;;;;;;;;;;;;4959259;28;89692;-62
2023/04/07 06:27:37;;;;;;;;;;;;;;;;;;4954617;28;89721;-64
2023/04/07 06:30:02;;;;;;;;;;;;;;;;;;4952025;28;89200;-61
2023/04/07 06:32:28;;;;;;;;;;;;;;;;;;4958729;28;90567;-63
2023/04/07 06:34:53;;;;;;;;;;;;;;;;;;4958508;28;89316;-61
2023/04/07 06:37:18;;;;;;;;;;;;;;;;;;4956717;28;89336;-59
2023/04/07 06:39:44;;;;;;;;;;;;;;;;;;4953926;28;89855;-62
2023/04/07 06:42:09;;;;;;;;;;;;;;;;;;4955719;28;89642;-61
2023/04/07 06:44:34;;;;;;;;;;;;;;;;;;4962124;28;90378;-61
2023/04/07 06:46:59;;;;;;;;;;;;;;;;;;4958938;28;89644;-62
2023/04/07 06:49:25;;;;;;;;;;;;;;;;;;4962074;28;89029;-59
2023/04/07 06:51:50;;;;;;;;;;;;;;;;;;4952266;28;89770;-64
2023/04/07 06:54:15;;;;;;;;;;;;;;;;;;4952932;28;89481;-63
2023/04/07 06:56:41;;;;;;;;;;;;;;;;;;4955206;28;91268;-61
2023/04/07 06:59:06;;;;;;;;;;;;;;;;;;4966155;28;89721;-59
2023/04/07 07:01:32;;;;;;;;;;;;;;;;;;4953096;28;90502;-60
2023/04/07 07:03:57;;;;;;;;;;;;;;;;;;4959157;28;89871;-59
2023/04/07 07:06:22;;;;;;;;;;;;;;;;;;4956753;28;89280;-63
2023/04/07 07:08:47;;;;;;;;;;;;;;;;;;4953588;28;89787;-61
2023/04/07 07:11:13;;;;;;;;;;;;;;;;;;4960128;28;89669;-64
2023/04/07 07:13:38;;;;;;;;;;;;;;;;;;4953763;28;90343;-64
2023/04/07 07:16:04;;;;;;;;;;;;;;;;;;4956818;28;89826;-60
2023/04/07 07:18:29;;;;;;;;;;;;;;;;;;4956349;28;89657;-63
2023/04/07 07:20:54;;;;;;;;;;;;;;;;;;4959681;28;89350;-65
2023/04/07 07:23:20;;;;;;;;;;;;;;;;;;4953024;28;90679;-64
2023/04/07 07:25:45;;;;;;;;;;;;;;;;;;4956579;28;90144;-64
2023/04/07 07:28:10;;;;;;;;;;;;;;;;;;4954376;28;89094;-58
2023/04/07 07:30:38;;;;;;;;;;;;;;;;;;4951776;28;89824;-60
2023/04/07 07:33:03;;;;;;;;;;;;;;;;;;4959983;28;89590;-60
2023/04/07 07:35:28;;;;;;;;;;;;;;;;;;4952976;28;89930;-60
2023/04/07 07:37:53;;;;;;;;;;;;;;;;;;4956355;28;90792;-59
2023/04/07 07:40:19;;;;;;;;;;;;;;;;;;4961308;28;89561;-58
2023/04/07 07:42:45;;;;;;;;;;;;;;;;;;4958488;28;91003;-62
2023/04/07 07:45:12;;;;;;;;;;;;;;;;;;4956929;28;90675;-59
2023/04/07 07:47:37;;;;;;;;;;;;;;;;;;4956395;28;89100;-59
2023/04/07 07:50:03;;;;;;;;;;;;;;;;;;4962431;28;90897;-59
2023/04/07 07:52:28;;;;;;;;;;;;;;;;;;4962479;28;90338;-61
2023/04/07 07:54:54;;;;;;;;;;;;;;;;;;4961465;28;89741;-58
2023/04/07 07:57:19;;;;;;;;;;;;;;;;;;4964010;28;89146;-63
2023/04/07 07:59:45;;;;;;;;;;;;;;;;;;4963174;28;89641;-60
2023/04/07 08:02:10;;;;;;;;;;;;;;;;;;4964427;28;90515;-61
2023/04/07 08:04:36;;;;;;;;;;;;;;;;;;4963241;28;90317;-59
2023/04/07 08:07:02;;;;;;;;;;;;;;;;;;4965064;28;89495;-59
2023/04/07 08:09:27;;;;;;;;;;;;;;;;;;4964696;28;90122;-58
2023/04/07 08:11:52;;;;;;;;;;;;;;;;;;4965290;28;89725;-59
2023/04/07 08:14:18;;;;;;;;;;;;;;;;;;4966051;28;89682;-59
2023/04/07 08:16:43;;;;;;;;;;;;;;;;;;4966645;28;89804;-59
2023/04/07 08:19:08;;;;;;;;;;;;;;;;;;4966755;28;89251;-58
2023/04/07 08:21:34;;;;;;;;;;;;;;;;;;4965986;28;89268;-58
2023/04/07 08:23:59;;;;;;;;;;;;;;;;;;4968577;28;90618;-58
2023/04/07 08:26:25;;;;;;;;;;;;;;;;;;4966926;28;89514;-60
2023/04/07 08:28:51;;;;;;;;;;;;;;;;;;4966563;28;89462;-59
2023/04/07 08:31:16;;;;;;;;;;;;;;;;;;4963226;28;90865;-59
2023/04/07 08:33:41;;;;;;;;;;;;;;;;;;4965017;28;89667;-59
2023/04/07 08:36:07;;;;;;;;;;;;;;;;;;4965586;28;90071;-58
2023/04/07 08:38:32;;;;;;;;;;;;;;;;;;4966622;28;89526;-60
2023/04/07 08:41:00;;;;;;;;;;;;;;;;;;4965484;28;89501;-63
2023/04/07 08:43:25;;;;;;;;;;;;;;;;;;4965229;28;90129;-59
2023/04/07 08:45:53;;;;;;;;;;;;;;;;;;4969256;28;90276;-59
2023/04/07 08:48:21;;;;;;;;;;;;;;;;;;4963350;28;92263;-59
2023/04/07 08:50:50;;;;;;;;;;;;;;;;;;4965697;28;89558;-61
2023/04/07 08:53:17;;;;;;;;;;;;;;;;;;4965180;28;89224;-61
2023/04/07 08:55:42;;;;;;;;;;;;;;;;;;4964794;28;90113;-63
2023/04/07 08:58:12;;;;;;;;;;;;;;;;;;4962796;28;89674;-60
2023/04/07 09:00:40;;;;;;;;;;;;;;;;;;4964594;28;89665;-62
2023/04/07 09:03:06;;;;;;;;;;;;;;;;;;4963406;28;89957;-62
2023/04/07 09:05:32;;;;;;;;;;;;;;;;;;4965573;28;89694;-62
2023/04/07 09:07:57;;;;;;;;;;;;;;;;;;4966191;28;90924;-59
2023/04/07 09:10:22;;;;;;;;;;;;;;;;;;4963819;28;89822;-61
2023/04/07 09:12:48;;;;;;;;;;;;;;;;;;4963081;28;89546;-59
2023/04/07 09:15:13;;;;;;;;;;;;;;;;;;4962922;28;89664;-60
2023/04/07 09:17:38;;;;;;;;;;;;;;;;;;4963773;28;89801;-60
2023/04/07 09:20:04;;;;;;;;;;;;;;;;;;4959528;28;90314;-60
2023/04/07 09:22:33;;;;;;;;;;;;;;;;;;4963846;28;89143;-59
2023/04/07 09:25:08;;;;;;;;;;;;;;;;;;4965150;28;89654;-59
2023/04/07 09:27:33;;;;;;;;;;;;;;;;;;4963695;28;90016;-60
2023/04/07 09:30:10;;;;;;;;;;;;;;;;;;4964719;28;89834;-61
2023/04/07 09:32:40;;;;;;;;;;;;;;;;;;4964251;28;89694;-62
2023/04/07 09:35:05;;;;;;;;;;;;;;;;;;4961706;28;90869;-62
2023/04/07 09:37:30;;;;;;;;;;;;;;;;;;4964167;28;90621;-64
2023/04/07 09:39:55;;;;;;;;;;;;;;;;;;4964296;28;89400;-58
2023/04/07 09:42:21;;;;;;;;;;;;;;;;;;4964216;28;89735;-63
2023/04/07 09:44:46;;;;;;;;;;;;;;;;;;4965344;28;90102;-61
2023/04/07 09:47:11;;;;;;;;;;;;;;;;;;4963028;28;90067;-62
2023/04/07 09:49:47;;;;;;;;;;;;;;;;;;4965262;28;89466;-63
2023/04/07 09:52:13;;;;;;;;;;;;;;;;;;4962840;28;89470;-59
2023/04/07 09:54:39;;;;;;;;;;;;;;;;;;4963460;28;89738;-61
2023/04/07 09:57:06;;;;;;;;;;;;;;;;;;4962302;28;89806;-64
2023/04/07 09:59:32;;;;;;;;;;;;;;;;;;4963403;28;89957;-60
2023/04/07 10:01:57;;;;;;;;;;;;;;;;;;4960621;28;89722;-65
2023/04/07 10:04:23;;;;;;;;;;;;;;;;;;4965509;28;89667;-60
2023/04/07 10:06:49;;;;;;;;;;;;;;;;;;4969074;28;92059;-66
2023/04/07 10:09:16;;;;;;;;;;;;;;;;;;4947285;28;93131;-62
2023/04/07 10:11:42;;;;;;;;;;;;;;;;;;4966560;28;89532;-64
2023/04/07 10:14:08;;;;;;;;;;;;;;;;;;4962881;28;90094;-60
2023/04/07 10:16:36;;;;;;;;;;;;;;;;;;4963546;28;91055;-63
2023/04/07 10:19:02;;;;;;;;;;;;;;;;;;4961746;28;90938;-60
2023/04/07 10:21:27;;;;;;;;;;;;;;;;;;4963634;28;89677;-63
2023/04/07 10:23:57;;;;;;;;;;;;;;;;;;4962271;28;91152;-60
2023/04/07 10:26:25;;;;;;;;;;;;;;;;;;4962912;28;89316;-59
2023/04/07 10:28:52;;;;;;;;;;;;;;;;;;4960794;28;89731;-59
2023/04/07 10:31:18;;;;;;;;;;;;;;;;;;4962474;28;89254;-64
2023/04/07 10:33:45;;;;;;;;;;;;;;;;;;4965537;28;89018;-66
2023/04/07 10:36:11;;;;;;;;;;;;;;;;;;4962042;28;89714;-63
2023/04/07 10:38:36;;;;;;;;;;;;;;;;;;4962766;28;90359;-61
2023/04/07 10:41:21;;;;;;;;;;;;;;;;;;4963078;28;90845;-63
2023/04/07 10:43:46;;;;;;;;;;;;;;;;;;4963026;28;90236;-65
2023/04/07 10:46:12;;;;;;;;;;;;;;;;;;4962723;28;89239;-60
2023/04/07 10:48:37;;;;;;;;;;;;;;;;;;4963343;28;90075;-63
2023/04/07 10:51:06;;;;;;;;;;;;;;;;;;4962430;28;89692;-58
2023/04/07 10:53:32;;;;;;;;;;;;;;;;;;4963081;28;89497;-59
2023/04/07 10:55:58;;;;;;;;;;;;;;;;;;4964851;28;90606;-58
2023/04/07 10:58:23;;;;;;;;;;;;;;;;;;4962649;28;89069;-59
2023/04/07 11:01:06;;;;;;;;;;;;;;;;;;4961243;28;89189;-64
2023/04/07 11:03:38;;;;;;;;;;;;;;;;;;4962085;28;90078;-65
2023/04/07 11:06:05;;;;;;;;;;;;;;;;;;4961637;28;89567;-61
2023/04/07 11:08:34;;;;;;;;;;;;;;;;;;4963160;28;89623;-62
2023/04/07 11:10:59;;;;;;;;;;;;;;;;;;4962182;28;89922;-65
2023/04/07 11:13:26;;;;;;;;;;;;;;;;;;4961723;28;89633;-63
2023/04/07 11:15:51;;;;;;;;;;;;;;;;;;4962105;28;89444;-63
2023/04/07 11:18:18;;;;;;;;;;;;;;;;;;4965523;28;90028;-60
2023/04/07 11:20:43;;;;;;;;;;;;;;;;;;4963461;28;90502;-60
2023/04/07 11:23:09;;;;;;;;;;;;;;;;;;4961136;28;89558;-60
2023/04/07 11:25:34;;;;;;;;;;;;;;;;;;4963379;28;89723;-58
2023/04/07 11:28:00;;;;;;;;;;;;;;;;;;4960676;28;89840;-59
2023/04/07 11:30:25;;;;;;;;;;;;;;;;;;4961576;28;89586;-59
2023/04/07 11:32:50;;;;;;;;;;;;;;;;;;4961859;28;89257;-62
2023/04/07 11:35:16;;;;;;;;;;;;;;;;;;4964036;28;89756;-64
2023/04/07 11:37:41;;;;;;;;;;;;;;;;;;4965116;28;89817;-60
2023/04/07 11:40:07;;;;;;;;;;;;;;;;;;4961542;28;90544;-65
2023/04/07 11:42:36;;;;;;;;;;;;;;;;;;4964264;28;90278;-66
2023/04/07 11:45:01;;;;;;;;;;;;;;;;;;4963340;28;89691;-69
2023/04/07 11:47:37;;;;;;;;;;;;;;;;;;4963429;28;89834;-65
2023/04/07 11:50:02;;;;;;;;;;;;;;;;;;4964144;28;89592;-63
2023/04/07 11:52:28;;;;;;;;;;;;;;;;;;4963994;28;88995;-58
2023/04/07 11:54:53;;;;;;;;;;;;;;;;;;4960943;28;92936;-63
2023/04/07 11:57:25;;;;;;;;;;;;;;;;;;4962794;28;89868;-58
2023/04/07 11:59:50;;;;;;;;;;;;;;;;;;4967623;28;89913;-61
2023/04/07 12:02:32;;;;;;;;;;;;;;;;;;4964756;28;89530;-60
2023/04/07 12:04:57;;;;;;;;;;;;;;;;;;4964699;28;89730;-58
2023/04/07 12:07:23;;;;;;;;;;;;;;;;;;4966614;28;90690;-64
2023/04/07 12:09:48;;;;;;;;;;;;;;;;;;4966383;28;89494;-60
2023/04/07 12:12:13;;;;;;;;;;;;;;;;;;4965388;28;89561;-58
2023/04/07 12:14:38;;;;;;;;;;;;;;;;;;4964726;28;90341;-58
2023/04/07 12:17:04;;;;;;;;;;;;;;;;;;4965111;28;89370;-63
2023/04/07 12:19:31;;;;;;;;;;;;;;;;;;4967008;28;89019;-65
2023/04/07 12:21:56;;;;;;;;;;;;;;;;;;4966889;28;92667;-58
2023/04/07 12:24:22;;;;;;;;;;;;;;;;;;4965914;28;89417;-58
2023/04/07 12:26:48;;;;;;;;;;;;;;;;;;4965102;28;90122;-66
2023/04/07 12:29:13;;;;;;;;;;;;;;;;;;4964929;28;89218;-60
2023/04/07 12:31:38;;;;;;;;;;;;;;;;;;4965052;28;90429;-61
2023/04/07 12:34:03;;;;;;;;;;;;;;;;;;4964572;28;89567;-63
2023/04/07 12:36:28;;;;;;;;;;;;;;;;;;4963406;28;89164;-64
2023/04/07 12:38:57;;;;;;;;;;;;;;;;;;4962697;28;89615;-63
2023/04/07 12:41:23;;;;;;;;;;;;;;;;;;4963104;28;89609;-64
2023/04/07 12:43:49;;;;;;;;;;;;;;;;;;4967715;28;92103;-67
2023/04/07 12:46:14;;;;;;;;;;;;;;;;;;4964343;28;90124;-64
2023/04/07 12:48:39;;;;;;;;;;;;;;;;;;4963829;28;89401;-64
2023/04/07 12:51:05;;;;;;;;;;;;;;;;;;4963352;28;89048;-68
2023/04/07 12:53:30;;;;;;;;;;;;;;;;;;4965303;28;90297;-65
2023/04/07 12:55:56;;;;;;;;;;;;;;;;;;4963308;28;90329;-67
2023/04/07 12:58:22;;;;;;;;;;;;;;;;;;4966168;28;89661;-68
2023/04/07 13:00:47;;;;;;;;;;;;;;;;;;4965905;28;90743;-63
2023/04/07 13:03:13;;;;;;;;;;;;;;;;;;4964849;28;90918;-59
2023/04/07 13:05:38;;;;;;;;;;;;;;;;;;4967940;28;89290;-59
2023/04/07 13:08:03;;;;;;;;;;;;;;;;;;4965338;28;89834;-62
2023/04/07 13:10:29;;;;;;;;;;;;;;;;;;4963574;28;89687;-64
2023/04/07 13:12:54;;;;;;;;;;;;;;;;;;4965707;28;89749;-63
2023/04/07 13:15:19;;;;;;;;;;;;;;;;;;4965554;28;89635;-62
2023/04/07 13:17:45;;;;;;;;;;;;;;;;;;4964795;28;89584;-59
2023/04/07 13:20:10;;;;;;;;;;;;;;;;;;4965748;28;90791;-59
2023/04/07 13:22:35;;;;;;;;;;;;;;;;;;4964203;28;89772;-61
2023/04/07 13:25:01;;;;;;;;;;;;;;;;;;4961474;28;91400;-66
2023/04/07 13:27:26;;;;;;;;;;;;;;;;;;4966171;28;90972;-64
2023/04/07 13:29:51;;;;;;;;;;;;;;;;;;4964732;28;90009;-60
2023/04/07 13:32:17;;;;;;;;;;;;;;;;;;4964869;28;89790;-61
2023/04/07 13:34:43;;;;;;;;;;;;;;;;;;4964390;28;91917;-65
2023/04/07 13:37:08;;;;;;;;;;;;;;;;;;4964355;28;89476;-64
2023/04/07 13:39:33;;;;;;;;;;;;;;;;;;4965356;28;89754;-67
2023/04/07 13:42:01;;;;;;;;;;;;;;;;;;4964952;28;89689;-62
2023/04/07 13:44:27;;;;;;;;;;;;;;;;;;4966243;28;89695;-65
2023/04/07 13:46:53;;;;;;;;;;;;;;;;;;4966594;28;91123;-62
2023/04/07 13:49:18;;;;;;;;;;;;;;;;;;4963691;28;89578;-65
2023/04/07 13:51:44;;;;;;;;;;;;;;;;;;4963195;28;90414;-66
2023/04/07 13:54:09;;;;;;;;;;;;;;;;;;4963780;28;89873;-62
2023/04/07 13:56:37;;;;;;;;;;;;;;;;;;4962904;28;89225;-65
2023/04/07 13:59:02;;;;;;;;;;;;;;;;;;4963659;28;90096;-65
2023/04/07 14:01:27;;;;;;;;;;;;;;;;;;4964748;28;89265;-67
2023/04/07 14:03:53;;;;;;;;;;;;;;;;;;4963854;28;89502;-67
2023/04/07 14:06:21;;;;;;;;;;;;;;;;;;4964044;28;90753;-64
2023/04/07 14:08:46;;;;;;;;;;;;;;;;;;4967484;28;91379;-63
2023/04/07 14:11:15;;;;;;;;;;;;;;;;;;4963471;28;89819;-61
2023/04/07 14:13:40;;;;;;;;;;;;;;;;;;4963974;28;90442;-62
2023/04/07 14:16:06;;;;;;;;;;;;;;;;;;4963176;28;89776;-59
2023/04/07 14:18:32;;;;;;;;;;;;;;;;;;4963682;28;91007;-58
2023/04/07 14:20:57;;;;;;;;;;;;;;;;;;4963742;28;89184;-60
2023/04/07 14:23:22;;;;;;;;;;;;;;;;;;4964397;28;89699;-60
2023/04/07 14:25:47;;;;;;;;;;;;;;;;;;4964150;28;90084;-60
2023/04/07 14:28:13;;;;;;;;;;;;;;;;;;4962965;28;90641;-59
2023/04/07 14:30:38;;;;;;;;;;;;;;;;;;4965970;28;89771;-65
2023/04/07 14:33:04;;;;;;;;;;;;;;;;;;4963759;28;89744;-66
2023/04/07 14:35:29;;;;;;;;;;;;;;;;;;4961876;28;89290;-68
2023/04/07 14:37:54;;;;;;;;;;;;;;;;;;4963341;28;90482;-59
2023/04/07 14:40:20;;;;;;;;;;;;;;;;;;4961907;28;89864;-59
2023/04/07 14:42:45;;;;;;;;;;;;;;;;;;4963479;28;89582;-59
2023/04/07 14:45:11;;;;;;;;;;;;;;;;;;4963224;28;89675;-67
2023/04/07 14:47:36;;;;;;;;;;;;;;;;;;4962155;28;89647;-67
2023/04/07 14:50:02;;;;;;;;;;;;;;;;;;4962128;28;90914;-63
2023/04/07 14:52:27;;;;;;;;;;;;;;;;;;4965573;28;89676;-65
2023/04/07 14:54:53;;;;;;;;;;;;;;;;;;4963327;28;89624;-66
2023/04/07 14:57:18;;;;;;;;;;;;;;;;;;4964082;28;89708;-64
2023/04/07 14:59:43;;;;;;;;;;;;;;;;;;4963585;28;90304;-66
2023/04/07 15:02:09;;;;;;;;;;;;;;;;;;4963408;28;90508;-62
2023/04/07 15:04:34;;;;;;;;;;;;;;;;;;4962982;28;89684;-68
2023/04/07 15:06:59;;;;;;;;;;;;;;;;;;4964109;28;89706;-63
2023/04/07 15:09:24;;;;;;;;;;;;;;;;;;4963901;28;89501;-70
2023/04/07 15:11:50;;;;;;;;;;;;;;;;;;4961360;28;90209;-64
2023/04/07 15:14:15;;;;;;;;;;;;;;;;;;4966415;28;89208;-62
2023/04/07 15:16:40;;;;;;;;;;;;;;;;;;4968878;28;89933;-65
2023/04/07 15:19:06;;;;;;;;;;;;;;;;;;4969549;28;89610;-61
2023/04/07 15:21:31;;;;;;;;;;;;;;;;;;4969978;28;89559;-66
2023/04/07 15:23:56;;;;;;;;;;;;;;;;;;4969498;28;90654;-61
2023/04/07 15:26:21;;;;;;;;;;;;;;;;;;4969548;28;91014;-66
2023/04/07 15:28:47;;;;;;;;;;;;;;;;;;4967726;28;89558;-65
2023/04/07 15:31:12;;;;;;;;;;;;;;;;;;4968901;28;89772;-61
2023/04/07 15:33:39;;;;;;;;;;;;;;;;;;4967231;28;90081;-69
2023/04/07 15:36:05;;;;;;;;;;;;;;;;;;4971667;28;89040;-63
2023/04/07 15:38:30;;;;;;;;;;;;;;;;;;4970323;28;90130;-62
2023/04/07 15:40:55;;;;;;;;;;;;;;;;;;4970178;28;89024;-60
2023/04/07 15:43:21;;;;;;;;;;;;;;;;;;4970880;28;89680;-61
2023/04/07 15:45:46;;;;;;;;;;;;;;;;;;4969416;28;90335;-59
2023/04/07 15:48:12;;;;;;;;;;;;;;;;;;4966428;28;90364;-60
2023/04/07 15:50:37;;;;;;;;;;;;;;;;;;4968236;28;90306;-64
2023/04/07 15:53:05;;;;;;;;;;;;;;;;;;4966633;28;92000;-64
2023/04/07 15:55:32;;;;;;;;;;;;;;;;;;4971562;28;89027;-61
2023/04/07 15:57:57;;;;;;;;;;;;;;;;;;4969468;28;89411;-62
2023/04/07 16:00:22;;;;;;;;;;;;;;;;;;4968948;28;89405;-62
2023/04/07 16:02:48;;;;;;;;;;;;;;;;;;4969509;28;89782;-67
2023/04/07 16:05:13;;;;;;;;;;;;;;;;;;4967829;28;89473;-63
2023/04/07 16:07:38;;;;;;;;;;;;;;;;;;4969207;28;91103;-62
2023/04/07 16:10:06;;;;;;;;;;;;;;;;;;4969833;28;90625;-67
2023/04/07 16:12:33;;;;;;;;;;;;;;;;;;4968748;28;90606;-62
2023/04/07 16:14:58;;;;;;;;;;;;;;;;;;4965396;28;89509;-68
2023/04/07 16:17:23;;;;;;;;;;;;;;;;;;4971310;28;89711;-66
2023/04/07 16:19:49;;;;;;;;;;;;;;;;;;4969783;28;89657;-62
2023/04/07 16:22:14;;;;;;;;;;;;;;;;;;4968661;28;90136;-66
2023/04/07 16:24:39;;;;;;;;;;;;;;;;;;4967453;28;89211;-65
2023/04/07 16:27:04;;;;;;;;;;;;;;;;;;4965058;28;91564;-61
2023/04/07 16:29:30;;;;;;;;;;;;;;;;;;4965101;28;89813;-60
2023/04/07 16:31:55;;;;;;;;;;;;;;;;;;4965376;28;90371;-62
2023/04/07 16:34:20;;;;;;;;;;;;;;;;;;4965571;28;89341;-65
2023/04/07 16:36:46;;;;;;;;;;;;;;;;;;4966231;28;89744;-64